Time;durP1;ratioP1;P1;durP2;ratioP2;P2;SDS_P1;SDS_P2;PMS_P1;PMS_P2;Temp;Humidity;BMP_temperature;BMP_pressure;BME280_temperature;BME280_humidity;BME280_pressure;Samples;Min_cycle;Max_cycle;Signal;HPM_P1;HPM_P2
2023/05/16 00:01:02;;;;;;;5.30;2.80;;;;;;;;;;5050694;28;20223;-80
2023/05/16 00:03:30;;;;;;;6.77;2.90;;;;;;;;;;5050908;28;20249;-81
2023/05/16 00:05:58;;;;;;;3.37;2.60;;;;;;;;;;5050997;28;20202;-80
2023/05/16 00:08:25;;;;;;;8.90;3.00;;;;;;;;;;5051203;28;20290;-81
2023/05/16 00:10:53;;;;;;;5.57;2.73;;;;;;;;;;5050496;28;20225;-81
2023/05/16 00:13:23;;;;;;;3.97;2.53;;;;;;;;;;5050390;28;20709;-80
2023/05/16 00:15:52;;;;;;;3.87;2.63;;;;;;;;;;5050486;28;20219;-81
2023/05/16 00:18:21;;;;;;;7.63;3.03;;;;;;;;;;5053455;28;20228;-80
2023/05/16 00:20:48;;;;;;;7.93;3.00;;;;;;;;;;5014691;28;20248;-81
2023/05/16 00:23:17;;;;;;;5.60;3.07;;;;;;;;;;5015092;28;20207;-81
2023/05/16 00:25:46;;;;;;;7.87;3.20;;;;;;;;;;5015162;28;20225;-81
2023/05/16 00:28:13;;;;;;;9.70;2.80;;;;;;;;;;5015040;28;20259;-80
2023/05/16 00:30:40;;;;;;;4.97;2.80;;;;;;;;;;5014839;28;20201;-81
2023/05/16 00:33:07;;;;;;;5.50;2.77;;;;;;;;;;5014971;28;20256;-80
2023/05/16 00:35:35;;;;;;;5.57;2.93;;;;;;;;;;5014679;28;20671;-81
2023/05/16 00:38:02;;;;;;;6.90;3.13;;;;;;;;;;5014612;28;20324;-81
2023/05/16 00:40:31;;;;;;;5.77;3.00;;;;;;;;;;5014941;28;20289;-80
2023/05/16 00:42:58;;;;;;;6.93;2.97;;;;;;;;;;5015017;28;20280;-80
2023/05/16 00:45:26;;;;;;;6.30;3.23;;;;;;;;;;5014315;28;20299;-80
2023/05/16 00:47:53;;;;;;;5.97;2.97;;;;;;;;;;5014420;28;20212;-80
2023/05/16 00:50:21;;;;;;;7.10;3.20;;;;;;;;;;5015209;28;20197;-81
2023/05/16 00:52:49;;;;;;;5.77;3.13;;;;;;;;;;5014825;28;20618;-80
2023/05/16 00:55:16;;;;;;;5.60;3.23;;;;;;;;;;5014235;28;20611;-81
2023/05/16 00:57:45;;;;;;;5.70;3.20;;;;;;;;;;5014423;28;20236;-81
2023/05/16 01:00:14;;;;;;;5.63;3.30;;;;;;;;;;5014104;28;20267;-81
2023/05/16 01:02:41;;;;;;;4.60;3.00;;;;;;;;;;5014789;28;20197;-80
2023/05/16 01:05:09;;;;;;;6.53;2.90;;;;;;;;;;5014399;28;20288;-81
2023/05/16 01:07:36;;;;;;;7.57;3.17;;;;;;;;;;5023635;28;20270;-79
2023/05/16 01:10:04;;;;;;;6.03;3.30;;;;;;;;;;5016037;28;20207;-81
2023/05/16 01:12:36;;;;;;;8.57;3.43;;;;;;;;;;5013907;28;20201;-80
2023/05/16 01:15:09;;;;;;;8.53;3.40;;;;;;;;;;5041258;28;20231;-81
2023/05/16 01:17:39;;;;;;;9.00;3.70;;;;;;;;;;5053489;28;20586;-81
2023/05/16 01:20:14;;;;;;;7.50;3.60;;;;;;;;;;5054171;28;20357;-81
2023/05/16 01:23:00;;;;;;;9.13;3.63;;;;;;;;;;5053754;28;20358;-80
2023/05/16 01:25:32;;;;;;;9.30;3.63;;;;;;;;;;5053431;28;20258;-80
2023/05/16 01:28:02;;;;;;;5.70;3.17;;;;;;;;;;5052845;28;20710;-80
2023/05/16 01:30:33;;;;;;;10.93;3.83;;;;;;;;;;5053313;28;20287;-80
2023/05/16 01:33:01;;;;;;;5.10;3.20;;;;;;;;;;5053537;28;20223;-81
2023/05/16 01:35:28;;;;;;;9.93;3.40;;;;;;;;;;5053314;28;20196;-80
2023/05/16 01:37:58;;;;;;;4.30;3.20;;;;;;;;;;5053230;28;20196;-80
2023/05/16 01:40:28;;;;;;;4.30;3.37;;;;;;;;;;5053323;28;20231;-81
2023/05/16 01:42:56;;;;;;;6.17;3.33;;;;;;;;;;5052895;28;20242;-81
2023/05/16 01:45:27;;;;;;;6.70;3.53;;;;;;;;;;5053239;28;20226;-80
2023/05/16 01:47:59;;;;;;;8.07;3.90;;;;;;;;;;5053222;28;20207;-81
2023/05/16 01:50:26;;;;;;;7.53;3.73;;;;;;;;;;5053247;28;20223;-80
2023/05/16 01:52:57;;;;;;;6.77;4.03;;;;;;;;;;5053416;28;20200;-81
2023/05/16 01:55:25;;;;;;;7.33;3.50;;;;;;;;;;5053073;28;20200;-81
2023/05/16 01:57:53;;;;;;;8.07;3.90;;;;;;;;;;5052693;28;20279;-81
2023/05/16 02:00:21;;;;;;;6.23;4.00;;;;;;;;;;5053168;28;20299;-80
2023/05/16 02:02:50;;;;;;;10.90;4.17;;;;;;;;;;5053343;28;20236;-81
2023/05/16 02:05:17;;;;;;;9.37;4.30;;;;;;;;;;5052757;28;20661;-81
2023/05/16 02:07:45;;;;;;;6.60;3.70;;;;;;;;;;5052532;28;20227;-81
2023/05/16 02:10:12;;;;;;;5.70;3.50;;;;;;;;;;5053031;28;20210;-81
2023/05/16 02:12:40;;;;;;;7.57;3.90;;;;;;;;;;5052340;28;20289;-81
2023/05/16 02:15:08;;;;;;;6.37;3.70;;;;;;;;;;5052763;28;20199;-81
2023/05/16 02:17:36;;;;;;;7.63;3.60;;;;;;;;;;5052527;28;20210;-80
2023/05/16 02:20:05;;;;;;;6.17;3.97;;;;;;;;;;5052786;28;20316;-81
2023/05/16 02:22:33;;;;;;;7.73;3.80;;;;;;;;;;5052820;28;20288;-81
2023/05/16 02:25:02;;;;;;;7.10;3.80;;;;;;;;;;5052758;28;20202;-80
2023/05/16 02:27:29;;;;;;;10.70;3.60;;;;;;;;;;5052304;28;20667;-80
2023/05/16 02:29:56;;;;;;;9.70;3.70;;;;;;;;;;5052196;28;20324;-80
2023/05/16 02:32:23;;;;;;;9.43;4.10;;;;;;;;;;5051927;28;20231;-81
2023/05/16 02:34:51;;;;;;;7.53;3.77;;;;;;;;;;5052672;28;20286;-81
2023/05/16 02:37:19;;;;;;;7.37;4.30;;;;;;;;;;5052896;28;20286;-80
2023/05/16 02:39:47;;;;;;;5.83;3.67;;;;;;;;;;5052422;28;20288;-80
2023/05/16 02:42:14;;;;;;;6.70;3.47;;;;;;;;;;5050760;28;20231;-79
2023/05/16 02:44:41;;;;;;;5.80;3.37;;;;;;;;;;5052196;28;20207;-81
2023/05/16 02:47:09;;;;;;;5.77;3.60;;;;;;;;;;5052707;28;20563;-81
2023/05/16 02:49:36;;;;;;;6.77;3.70;;;;;;;;;;5052113;28;20207;-81
2023/05/16 02:52:04;;;;;;;6.73;3.87;;;;;;;;;;5052154;28;20293;-80
2023/05/16 02:54:32;;;;;;;8.13;3.73;;;;;;;;;;5051848;28;20637;-81
2023/05/16 02:57:00;;;;;;;7.07;4.13;;;;;;;;;;5052064;28;20759;-80
2023/05/16 02:59:27;;;;;;;7.27;3.90;;;;;;;;;;5051572;28;20328;-81
2023/05/16 03:01:55;;;;;;;7.70;4.23;;;;;;;;;;5051557;28;20299;-80
2023/05/16 03:04:23;;;;;;;5.63;4.07;;;;;;;;;;5052263;28;20269;-80
2023/05/16 03:06:51;;;;;;;8.90;4.00;;;;;;;;;;5051675;28;20253;-81
2023/05/16 03:09:19;;;;;;;5.33;3.40;;;;;;;;;;5049908;28;20200;-80
2023/05/16 03:11:48;;;;;;;5.80;3.50;;;;;;;;;;5046016;28;20211;-80
2023/05/16 03:14:15;;;;;;;6.20;3.57;;;;;;;;;;5031423;28;20230;-81
2023/05/16 03:16:42;;;;;;;6.10;3.60;;;;;;;;;;5031492;28;20290;-80
2023/05/16 03:19:09;;;;;;;6.43;3.70;;;;;;;;;;5031409;28;20281;-81
2023/05/16 03:21:37;;;;;;;5.47;3.17;;;;;;;;;;5031325;28;20701;-80
2023/05/16 03:24:05;;;;;;;8.33;4.10;;;;;;;;;;5031365;28;20223;-81
2023/05/16 03:26:32;;;;;;;4.53;3.27;;;;;;;;;;5031400;28;20696;-80
2023/05/16 03:29:00;;;;;;;6.27;3.27;;;;;;;;;;5031732;28;20288;-80
2023/05/16 03:31:28;;;;;;;6.30;3.73;;;;;;;;;;5031716;28;20298;-80
2023/05/16 03:33:55;;;;;;;7.77;4.33;;;;;;;;;;5031172;28;20234;-81
2023/05/16 03:36:23;;;;;;;5.83;3.70;;;;;;;;;;5031441;28;20285;-80
2023/05/16 03:38:50;;;;;;;5.47;3.47;;;;;;;;;;5031364;28;20233;-80
2023/05/16 03:41:17;;;;;;;5.47;3.60;;;;;;;;;;5031691;28;20236;-80
2023/05/16 03:43:45;;;;;;;7.87;3.47;;;;;;;;;;5031207;28;20195;-81
2023/05/16 03:46:13;;;;;;;7.23;3.63;;;;;;;;;;5031036;28;20691;-80
2023/05/16 03:48:41;;;;;;;4.63;3.10;;;;;;;;;;5031722;28;20241;-81
2023/05/16 03:51:08;;;;;;;4.57;3.20;;;;;;;;;;5031383;28;20631;-80
2023/05/16 03:53:35;;;;;;;5.30;3.50;;;;;;;;;;5030040;28;20289;-80
2023/05/16 03:56:02;;;;;;;4.70;3.30;;;;;;;;;;5031228;28;20288;-80
2023/05/16 03:58:30;;;;;;;6.10;3.67;;;;;;;;;;5031186;28;20224;-81
2023/05/16 04:00:57;;;;;;;5.50;3.20;;;;;;;;;;5031021;28;20284;-80
2023/05/16 04:03:27;;;;;;;5.70;3.10;;;;;;;;;;5031259;28;20206;-80
2023/05/16 04:05:55;;;;;;;7.03;3.27;;;;;;;;;;5031058;28;20210;-80
2023/05/16 04:08:22;;;;;;;6.10;3.37;;;;;;;;;;5030867;28;20197;-80
2023/05/16 04:10:49;;;;;;;4.93;3.20;;;;;;;;;;5031378;28;20793;-80
2023/05/16 04:13:16;;;;;;;4.57;2.97;;;;;;;;;;5030986;28;20614;-80
2023/05/16 04:15:44;;;;;;;5.07;3.10;;;;;;;;;;5050366;28;20254;-80
2023/05/16 04:18:11;;;;;;;6.83;3.40;;;;;;;;;;5050803;28;20206;-80
2023/05/16 04:20:39;;;;;;;7.47;3.03;;;;;;;;;;5050809;28;20236;-81
2023/05/16 04:23:07;;;;;;;6.73;3.50;;;;;;;;;;5050407;28;20263;-80
2023/05/16 04:25:34;;;;;;;5.33;3.37;;;;;;;;;;5050525;28;20296;-80
2023/05/16 04:28:01;;;;;;;5.90;3.30;;;;;;;;;;5049180;28;20209;-80
2023/05/16 04:30:29;;;;;;;6.27;3.70;;;;;;;;;;5051239;28;20237;-80
2023/05/16 04:32:58;;;;;;;5.47;3.93;;;;;;;;;;5050274;28;20256;-81
2023/05/16 04:35:25;;;;;;;4.83;4.03;;;;;;;;;;5050756;28;20199;-81
2023/05/16 04:37:54;;;;;;;6.37;4.57;;;;;;;;;;5042000;28;20249;-80
2023/05/16 04:40:21;;;;;;;6.80;4.00;;;;;;;;;;5030495;28;20719;-80
2023/05/16 04:42:48;;;;;;;6.90;4.03;;;;;;;;;;5030722;28;20631;-80
2023/05/16 04:45:15;;;;;;;5.40;3.97;;;;;;;;;;5030828;28;20246;-80
2023/05/16 04:47:42;;;;;;;5.93;3.93;;;;;;;;;;5031212;28;20199;-80
2023/05/16 04:50:10;;;;;;;8.37;4.90;;;;;;;;;;5030361;28;20271;-80
2023/05/16 04:52:38;;;;;;;9.87;4.70;;;;;;;;;;5030164;28;20212;-80
2023/05/16 04:55:07;;;;;;;7.37;4.73;;;;;;;;;;5030202;28;20199;-80
2023/05/16 04:57:34;;;;;;;5.90;4.50;;;;;;;;;;5030649;28;20295;-80
2023/05/16 05:00:06;;;;;;;6.50;4.60;;;;;;;;;;5030579;28;20322;-80
2023/05/16 05:02:34;;;;;;;5.77;4.23;;;;;;;;;;5030980;28;20203;-80
2023/05/16 05:05:01;;;;;;;7.00;4.27;;;;;;;;;;5030336;28;20293;-79
2023/05/16 05:07:28;;;;;;;8.97;4.63;;;;;;;;;;5033122;28;20282;-80
2023/05/16 05:09:55;;;;;;;7.33;4.77;;;;;;;;;;5033895;28;20285;-80
2023/05/16 05:12:26;;;;;;;7.13;4.77;;;;;;;;;;5034127;28;20624;-82
2023/05/16 05:14:53;;;;;;;12.70;7.10;;;;;;;;;;5033768;28;20217;-81
2023/05/16 05:17:20;;;;;;;9.93;5.90;;;;;;;;;;5033924;28;20227;-80
2023/05/16 05:19:48;;;;;;;7.60;6.03;;;;;;;;;;5033390;28;20239;-80
2023/05/16 05:22:15;;;;;;;5.97;5.33;;;;;;;;;;5033885;28;20246;-80
2023/05/16 05:24:42;;;;;;;5.60;4.57;;;;;;;;;;5033729;28;20294;-79
2023/05/16 05:27:10;;;;;;;6.33;4.57;;;;;;;;;;5034109;28;20227;-79
2023/05/16 05:29:38;;;;;;;5.77;4.37;;;;;;;;;;5033704;28;20673;-78
2023/05/16 05:32:05;;;;;;;5.47;4.17;;;;;;;;;;5033819;28;20201;-79
2023/05/16 05:34:33;;;;;;;7.57;4.00;;;;;;;;;;5033182;28;20291;-79
2023/05/16 05:37:00;;;;;;;6.10;3.97;;;;;;;;;;5033925;28;20307;-80
2023/05/16 05:39:27;;;;;;;6.90;4.47;;;;;;;;;;5033419;28;20319;-80
2023/05/16 05:41:54;;;;;;;5.40;4.20;;;;;;;;;;5032940;28;20265;-80
2023/05/16 05:44:22;;;;;;;4.37;3.70;;;;;;;;;;5033458;28;20196;-80
2023/05/16 05:46:50;;;;;;;4.30;3.20;;;;;;;;;;5033256;28;20296;-80
2023/05/16 05:49:18;;;;;;;4.93;3.80;;;;;;;;;;5033259;28;20267;-81
2023/05/16 05:51:45;;;;;;;3.63;3.07;;;;;;;;;;5027812;28;20258;-80
2023/05/16 05:54:12;;;;;;;4.60;2.93;;;;;;;;;;5027634;28;20266;-81
2023/05/16 05:56:39;;;;;;;5.23;3.27;;;;;;;;;;5030296;28;20240;-79
2023/05/16 05:59:06;;;;;;;5.30;3.20;;;;;;;;;;5031381;28;20288;-80
2023/05/16 06:01:34;;;;;;;5.50;2.97;;;;;;;;;;5031104;28;20204;-79
2023/05/16 06:04:02;;;;;;;4.80;3.00;;;;;;;;;;5029727;28;20748;-80
2023/05/16 06:06:30;;;;;;;4.37;2.90;;;;;;;;;;5031619;28;20228;-80
2023/05/16 06:08:57;;;;;;;4.30;3.07;;;;;;;;;;5031088;28;20201;-80
2023/05/16 06:11:24;;;;;;;5.40;3.00;;;;;;;;;;5029171;28;20685;-80
2023/05/16 06:13:52;;;;;;;5.83;2.90;;;;;;;;;;5034285;28;20222;-79
2023/05/16 06:16:19;;;;;;;8.03;3.13;;;;;;;;;;5031010;28;20220;-80
2023/05/16 06:18:47;;;;;;;6.50;3.77;;;;;;;;;;5030672;28;20204;-81
2023/05/16 06:21:16;;;;;;;6.55;3.65;;;;;;;;;;5031319;28;20254;-81
2023/05/16 06:23:43;;;;;;;6.50;3.55;;;;;;;;;;5031856;28;20254;-81
2023/05/16 06:26:11;;;;;;;5.85;3.25;;;;;;;;;;5030900;28;20589;-81
2023/05/16 06:28:38;;;;;;;5.55;3.30;;;;;;;;;;5031320;28;20280;-81
2023/05/16 06:31:05;;;;;;;5.40;3.33;;;;;;;;;;5030201;28;20208;-78
2023/05/16 06:33:32;;;;;;;6.20;3.05;;;;;;;;;;5027571;28;20332;-81
2023/05/16 06:36:00;;;;;;;8.07;3.38;;;;;;;;;;5025433;28;20200;-81
2023/05/16 06:38:28;;;;;;;5.82;3.05;;;;;;;;;;5026356;28;20232;-82
2023/05/16 06:40:55;;;;;;;5.65;2.75;;;;;;;;;;5026689;28;20319;-81
2023/05/16 06:43:22;;;;;;;6.25;3.03;;;;;;;;;;5030656;28;20230;-82
2023/05/16 06:45:50;;;;;;;6.75;3.10;;;;;;;;;;5027303;28;20200;-81
2023/05/16 06:48:18;;;;;;;11.00;3.47;;;;;;;;;;5031445;28;20211;-81
2023/05/16 06:50:47;;;;;;;6.63;3.50;;;;;;;;;;5030487;28;20201;-82
2023/05/16 06:53:15;;;;;;;5.85;2.97;;;;;;;;;;5029678;28;20207;-80
2023/05/16 06:55:43;;;;;;;4.88;2.83;;;;;;;;;;5029688;28;20204;-81
2023/05/16 06:58:11;;;;;;;4.88;2.53;;;;;;;;;;5022909;28;20634;-80
2023/05/16 07:00:38;;;;;;;6.68;3.08;;;;;;;;;;5029922;28;20315;-81
2023/05/16 07:03:05;;;;;;;7.60;3.05;;;;;;;;;;5030010;28;20239;-81
2023/05/16 07:05:32;;;;;;;5.75;2.88;;;;;;;;;;5030362;28;20566;-80
2023/05/16 07:08:02;;;;;;;5.72;2.80;;;;;;;;;;5030369;28;20223;-80
2023/05/16 07:10:29;;;;;;;4.85;2.58;;;;;;;;;;5030612;28;20205;-80
2023/05/16 07:13:00;;;;;;;6.53;2.47;;;;;;;;;;5030300;28;20204;-80
2023/05/16 07:15:27;;;;;;;3.92;2.42;;;;;;;;;;5032928;28;20329;-79
2023/05/16 07:17:54;;;;;;;5.22;2.65;;;;;;;;;;5029406;28;20696;-80
2023/05/16 07:20:22;;;;;;;5.03;2.08;;;;;;;;;;5030467;28;20351;-79
2023/05/16 07:22:49;;;;;;;7.45;2.45;;;;;;;;;;5029974;28;20235;-81
2023/05/16 07:25:17;;;;;;;4.80;2.33;;;;;;;;;;5029668;28;20291;-80
2023/05/16 07:27:44;;;;;;;5.28;2.45;;;;;;;;;;5030213;28;20617;-80
2023/05/16 07:30:13;;;;;;;5.35;2.25;;;;;;;;;;5028884;28;20212;-80
2023/05/16 07:32:42;;;;;;;5.75;2.30;;;;;;;;;;5029769;28;20729;-81
2023/05/16 07:35:10;;;;;;;4.47;2.15;;;;;;;;;;5030034;28;20746;-79
2023/05/16 07:37:40;;;;;;;5.13;2.40;;;;;;;;;;5030010;28;20205;-80
2023/05/16 07:40:08;;;;;;;4.97;2.15;;;;;;;;;;5029540;28;20224;-80
2023/05/16 07:42:35;;;;;;;7.28;2.20;;;;;;;;;;5030018;28;20303;-81
2023/05/16 07:45:03;;;;;;;6.18;2.00;;;;;;;;;;5028654;28;20204;-81
2023/05/16 07:47:32;;;;;;;4.18;2.00;;;;;;;;;;5030274;28;20235;-82
2023/05/16 07:49:59;;;;;;;5.80;1.80;;;;;;;;;;5029357;28;20244;-80
2023/05/16 07:52:27;;;;;;;4.10;1.80;;;;;;;;;;5028594;28;20617;-81
2023/05/16 07:54:54;;;;;;;4.30;1.70;;;;;;;;;;5029138;28;20215;-82
2023/05/16 07:57:21;;;;;;;4.60;1.70;;;;;;;;;;5029764;28;20211;-81
2023/05/16 07:59:50;;;;;;;5.38;1.80;;;;;;;;;;5028493;28;20203;-81
2023/05/16 08:02:18;;;;;;;3.22;1.70;;;;;;;;;;5029770;28;20290;-81
2023/05/16 08:04:47;;;;;;;5.47;1.33;;;;;;;;;;5029311;28;20277;-80
2023/05/16 08:07:14;;;;;;;2.83;1.27;;;;;;;;;;5022340;28;20250;-81
2023/05/16 08:09:42;;;;;;;6.05;1.85;;;;;;;;;;5029857;28;20227;-81
2023/05/16 08:12:10;;;;;;;3.78;1.58;;;;;;;;;;5029485;28;20258;-82
2023/05/16 08:14:37;;;;;;;5.13;1.85;;;;;;;;;;5031605;28;20207;-82
2023/05/16 08:17:05;;;;;;;7.03;1.90;;;;;;;;;;5029656;28;20211;-81
2023/05/16 08:19:32;;;;;;;5.47;1.73;;;;;;;;;;5029548;28;20258;-81
2023/05/16 08:22:01;;;;;;;3.55;1.60;;;;;;;;;;5029504;28;20232;-80
2023/05/16 08:24:29;;;;;;;5.18;1.58;;;;;;;;;;5026926;28;20220;-81
2023/05/16 08:26:56;;;;;;;4.50;1.55;;;;;;;;;;5027519;28;20200;-80
2023/05/16 08:29:23;;;;;;;3.90;1.30;;;;;;;;;;5028072;28;20223;-80
2023/05/16 08:31:50;;;;;;;3.40;1.67;;;;;;;;;;5029065;28;20262;-79
2023/05/16 08:34:17;;;;;;;5.70;1.50;;;;;;;;;;5029490;28;20328;-81
2023/05/16 08:36:45;;;;;;;2.53;1.33;;;;;;;;;;5029429;28;20228;-81
2023/05/16 08:39:13;;;;;;;4.88;1.63;;;;;;;;;;5029016;28;20196;-79
2023/05/16 08:41:41;;;;;;;3.05;1.60;;;;;;;;;;5031902;28;20262;-80
2023/05/16 08:44:09;;;;;;;5.32;1.48;;;;;;;;;;5028710;28;20243;-79
2023/05/16 08:46:37;;;;;;;4.00;1.60;;;;;;;;;;5033112;28;20231;-78
2023/05/16 08:49:06;;;;;;;6.63;2.15;;;;;;;;;;5032571;28;20415;-79
2023/05/16 08:51:35;;;;;;;4.53;1.67;;;;;;;;;;5032624;28;20202;-80
2023/05/16 08:54:04;;;;;;;3.97;1.55;;;;;;;;;;5031296;28;20203;-79
2023/05/16 08:56:34;;;;;;;4.78;1.65;;;;;;;;;;5033522;28;20230;-80
2023/05/16 08:59:01;;;;;;;3.65;1.98;;;;;;;;;;5032565;28;20572;-79
2023/05/16 09:01:29;;;;;;;6.45;1.90;;;;;;;;;;5032141;28;20232;-79
2023/05/16 09:03:56;;;;;;;6.60;1.95;;;;;;;;;;5032509;28;20235;-79
2023/05/16 09:06:23;;;;;;;4.32;1.70;;;;;;;;;;5031752;28;20670;-80
2023/05/16 09:08:50;;;;;;;4.60;1.98;;;;;;;;;;5032723;28;20205;-80
2023/05/16 09:11:18;;;;;;;4.32;1.73;;;;;;;;;;5032855;28;20205;-79
2023/05/16 09:13:46;;;;;;;3.70;1.70;;;;;;;;;;5027404;28;20200;-79
2023/05/16 09:16:14;;;;;;;3.72;1.88;;;;;;;;;;5026797;28;20756;-79
2023/05/16 09:18:43;;;;;;;4.35;1.83;;;;;;;;;;5028857;28;20279;-79
2023/05/16 09:21:11;;;;;;;4.35;2.05;;;;;;;;;;5027268;28;20240;-79
2023/05/16 09:23:38;;;;;;;4.78;1.88;;;;;;;;;;5026230;28;20240;-79
2023/05/16 09:26:07;;;;;;;4.28;1.52;;;;;;;;;;5024901;28;20744;-80
2023/05/16 09:28:34;;;;;;;4.15;1.80;;;;;;;;;;5027987;28;20584;-80
2023/05/16 09:31:03;;;;;;;4.93;2.00;;;;;;;;;;5028250;28;20231;-79
2023/05/16 09:33:30;;;;;;;4.75;2.05;;;;;;;;;;5028355;28;20323;-80
2023/05/16 09:35:58;;;;;;;7.57;2.10;;;;;;;;;;5027426;28;20681;-79
2023/05/16 09:38:26;;;;;;;5.30;1.90;;;;;;;;;;5028581;28;20235;-78
2023/05/16 09:40:53;;;;;;;4.72;2.00;;;;;;;;;;5027897;28;20474;-79
2023/05/16 09:43:23;;;;;;;4.53;1.90;;;;;;;;;;5027027;28;20303;-79
2023/05/16 09:45:50;;;;;;;2.03;1.60;;;;;;;;;;5027160;28;20208;-81
2023/05/16 09:48:19;;;;;;;3.03;1.60;;;;;;;;;;5028721;28;20208;-80
2023/05/16 09:50:51;;;;;;;4.85;1.90;;;;;;;;;;5027084;28;20266;-80
2023/05/16 09:53:19;;;;;;;4.03;1.83;;;;;;;;;;5028089;28;20224;-80
2023/05/16 09:55:46;;;;;;;4.85;1.80;;;;;;;;;;5027139;28;20203;-80
2023/05/16 09:58:18;;;;;;;4.07;1.80;;;;;;;;;;5027916;28;20291;-80
2023/05/16 10:00:46;;;;;;;5.38;1.52;;;;;;;;;;5024142;28;20628;-79
2023/05/16 10:03:14;;;;;;;4.43;1.98;;;;;;;;;;5027971;28;20586;-80
2023/05/16 10:05:42;;;;;;;3.15;1.38;;;;;;;;;;5027450;28;20201;-78
2023/05/16 10:08:10;;;;;;;2.35;1.17;;;;;;;;;;5025312;28;20287;-80
2023/05/16 10:10:38;;;;;;;3.00;1.45;;;;;;;;;;5026835;28;20287;-81
2023/05/16 10:13:06;;;;;;;4.05;1.60;;;;;;;;;;5028448;28;20232;-81
2023/05/16 10:15:33;;;;;;;5.35;1.50;;;;;;;;;;5028082;28;20215;-80
2023/05/16 10:18:02;;;;;;;3.70;1.42;;;;;;;;;;5026783;28;20287;-80
2023/05/16 10:20:29;;;;;;;2.70;1.45;;;;;;;;;;5028109;28;20223;-78
2023/05/16 10:22:58;;;;;;;3.13;1.77;;;;;;;;;;5020330;28;20880;-78
2023/05/16 10:25:27;;;;;;;3.92;1.92;;;;;;;;;;5025182;28;20228;-80
2023/05/16 10:27:55;;;;;;;4.30;1.90;;;;;;;;;;5023865;28;20232;-79
2023/05/16 10:30:22;;;;;;;2.78;1.60;;;;;;;;;;5020529;28;20285;-80
2023/05/16 10:32:50;;;;;;;4.32;2.00;;;;;;;;;;5020206;28;20247;-80
2023/05/16 10:35:18;;;;;;;4.88;1.73;;;;;;;;;;5024635;28;20284;-80
2023/05/16 10:37:45;;;;;;;3.65;1.83;;;;;;;;;;5018118;28;20838;-79
2023/05/16 10:40:14;;;;;;;5.85;1.83;;;;;;;;;;5022483;28;20744;-79
2023/05/16 10:42:45;;;;;;;4.75;2.08;;;;;;;;;;5019195;28;20501;-79
2023/05/16 10:45:17;;;;;;;4.03;2.40;;;;;;;;;;5021175;28;20193;-79
2023/05/16 10:47:52;;;;;;;3.53;2.20;;;;;;;;;;5023134;28;20255;-80
2023/05/16 10:50:32;;;;;;;3.65;2.10;;;;;;;;;;5021333;28;20192;-79
2023/05/16 10:53:11;;;;;;;4.97;2.35;;;;;;;;;;5019581;28;20196;-79
2023/05/16 10:55:41;;;;;;;3.60;2.42;;;;;;;;;;5024027;28;20291;-79
2023/05/16 10:58:09;;;;;;;2.90;2.20;;;;;;;;;;5022028;28;20250;-79
2023/05/16 11:00:37;;;;;;;3.40;1.80;;;;;;;;;;5023522;28;20205;-80
2023/05/16 11:03:06;;;;;;;4.95;2.17;;;;;;;;;;5019730;28;20224;-79
2023/05/16 11:05:34;;;;;;;5.25;2.42;;;;;;;;;;5023454;28;20287;-79
2023/05/16 11:08:04;;;;;;;3.85;1.98;;;;;;;;;;5027175;28;20200;-80
2023/05/16 11:10:31;;;;;;;5.93;2.10;;;;;;;;;;5027854;28;20667;-79
2023/05/16 11:13:07;;;;;;;5.32;2.47;;;;;;;;;;5026190;28;20291;-80
2023/05/16 11:15:35;;;;;;;4.38;2.30;;;;;;;;;;5027767;28;20206;-81
2023/05/16 11:18:09;;;;;;;3.22;1.70;;;;;;;;;;5027221;28;20204;-80
2023/05/16 11:20:36;;;;;;;4.80;2.10;;;;;;;;;;5027064;28;20196;-79
2023/05/16 11:23:22;;;;;;;3.55;1.80;;;;;;;;;;5025405;28;20319;-80
2023/05/16 11:25:52;;;;;;;4.93;1.90;;;;;;;;;;5024439;28;20291;-80
2023/05/16 11:28:21;;;;;;;4.88;2.03;;;;;;;;;;5027180;28;20739;-80
2023/05/16 11:30:50;;;;;;;3.45;1.77;;;;;;;;;;5026580;28;20692;-80
2023/05/16 11:33:17;;;;;;;4.72;1.75;;;;;;;;;;5026755;28;20243;-78
2023/05/16 11:35:45;;;;;;;5.50;2.08;;;;;;;;;;5026494;28;20684;-78
2023/05/16 11:38:16;;;;;;;3.50;1.90;;;;;;;;;;5023261;28;21644;-79
2023/05/16 11:40:44;;;;;;;3.35;1.58;;;;;;;;;;5024834;28;20212;-80
2023/05/16 11:43:11;;;;;;;3.95;1.60;;;;;;;;;;5026398;28;20246;-79
2023/05/16 11:45:40;;;;;;;2.92;1.70;;;;;;;;;;5026853;28;20555;-79
2023/05/16 11:48:07;;;;;;;2.92;1.65;;;;;;;;;;5024651;28;20202;-79
2023/05/16 11:50:35;;;;;;;2.65;1.42;;;;;;;;;;5025833;28;20200;-79
2023/05/16 11:53:02;;;;;;;3.08;1.50;;;;;;;;;;5024631;28;20703;-80
2023/05/16 11:55:31;;;;;;;6.55;1.88;;;;;;;;;;5027139;28;20439;-81
2023/05/16 11:57:58;;;;;;;4.35;1.90;;;;;;;;;;5025641;28;20197;-79
2023/05/16 12:00:26;;;;;;;2.78;1.80;;;;;;;;;;5027336;28;20638;-80
2023/05/16 12:02:56;;;;;;;4.85;1.90;;;;;;;;;;5026364;28;20224;-80
2023/05/16 12:05:26;;;;;;;2.58;1.70;;;;;;;;;;5026890;28;20224;-80
2023/05/16 12:07:54;;;;;;;3.22;1.77;;;;;;;;;;5026184;28;20707;-80
2023/05/16 12:10:21;;;;;;;3.35;2.00;;;;;;;;;;5025437;28;20203;-80
2023/05/16 12:12:50;;;;;;;3.03;1.73;;;;;;;;;;5025125;28;20196;-80
2023/05/16 12:15:18;;;;;;;2.85;1.95;;;;;;;;;;5030395;28;20278;-80
2023/05/16 12:17:46;;;;;;;3.40;1.70;;;;;;;;;;5030427;28;20204;-80
2023/05/16 12:20:15;;;;;;;2.55;1.92;;;;;;;;;;5030235;28;20742;-79
2023/05/16 12:22:43;;;;;;;2.20;1.50;;;;;;;;;;5030109;28;20231;-81
2023/05/16 12:25:23;;;;;;;3.17;1.70;;;;;;;;;;5028975;28;20284;-80
2023/05/16 12:27:50;;;;;;;2.17;1.50;;;;;;;;;;5028510;28;20199;-80
2023/05/16 12:30:18;;;;;;;3.28;2.00;;;;;;;;;;5030032;28;20234;-80
2023/05/16 12:32:45;;;;;;;5.43;2.10;;;;;;;;;;5029931;28;20239;-81
2023/05/16 12:35:14;;;;;;;5.15;2.30;;;;;;;;;;5030619;28;20571;-79
2023/05/16 12:37:43;;;;;;;4.00;1.80;;;;;;;;;;5029846;28;20291;-79
2023/05/16 12:40:12;;;;;;;5.97;1.98;;;;;;;;;;5028130;28;20204;-79
2023/05/16 12:42:39;;;;;;;3.65;1.80;;;;;;;;;;5029062;28;20244;-80
2023/05/16 12:45:15;;;;;;;3.90;2.10;;;;;;;;;;5028906;28;20315;-80
2023/05/16 12:47:42;;;;;;;4.25;1.70;;;;;;;;;;5030685;28;20618;-79
2023/05/16 12:50:12;;;;;;;6.43;2.28;;;;;;;;;;5029530;28;20999;-80
2023/05/16 12:52:49;;;;;;;4.82;1.83;;;;;;;;;;5029974;28;20201;-81
2023/05/16 12:55:16;;;;;;;5.65;2.35;;;;;;;;;;5030603;28;20208;-80
2023/05/16 12:57:45;;;;;;;4.20;2.25;;;;;;;;;;5026334;28;20235;-80
2023/05/16 13:00:13;;;;;;;4.93;2.17;;;;;;;;;;5028653;28;20296;-80
2023/05/16 13:02:40;;;;;;;5.57;2.10;;;;;;;;;;5029152;28;20290;-80
2023/05/16 13:05:08;;;;;;;3.83;2.17;;;;;;;;;;5029741;28;20207;-80
2023/05/16 13:07:38;;;;;;;6.05;1.83;;;;;;;;;;5029605;28;20204;-80
2023/05/16 13:10:08;;;;;;;5.80;2.08;;;;;;;;;;5028672;28;20201;-80
2023/05/16 13:12:36;;;;;;;4.93;1.95;;;;;;;;;;5030037;28;20207;-80
2023/05/16 13:15:03;;;;;;;3.42;1.95;;;;;;;;;;5031519;28;20737;-79
2023/05/16 13:17:30;;;;;;;5.25;2.03;;;;;;;;;;5028960;28;20261;-80
2023/05/16 13:19:57;;;;;;;4.10;2.00;;;;;;;;;;5028189;28;20228;-80
2023/05/16 13:22:24;;;;;;;4.15;1.77;;;;;;;;;;5029638;28;20335;-80
2023/05/16 13:24:52;;;;;;;4.50;2.20;;;;;;;;;;5027351;28;20291;-80
2023/05/16 13:27:20;;;;;;;4.57;2.17;;;;;;;;;;5029663;28;20565;-81
2023/05/16 13:29:47;;;;;;;4.82;2.17;;;;;;;;;;5029077;28;20734;-79
2023/05/16 13:32:15;;;;;;;5.45;2.58;;;;;;;;;;5028254;28;20318;-79
2023/05/16 13:34:42;;;;;;;5.18;2.08;;;;;;;;;;5029265;28;20296;-80
2023/05/16 13:37:09;;;;;;;5.40;2.30;;;;;;;;;;5029193;28;20292;-80
2023/05/16 13:39:36;;;;;;;4.35;1.90;;;;;;;;;;5028683;28;20295;-80
2023/05/16 13:42:03;;;;;;;4.05;2.08;;;;;;;;;;5028467;28;20794;-80
2023/05/16 13:44:32;;;;;;;3.92;1.90;;;;;;;;;;5029683;28;20287;-81
2023/05/16 13:46:59;;;;;;;3.53;1.92;;;;;;;;;;5023805;28;20312;-80
2023/05/16 13:49:26;;;;;;;3.60;2.10;;;;;;;;;;5028413;28;20211;-80
2023/05/16 13:51:54;;;;;;;5.05;2.05;;;;;;;;;;5028446;28;20212;-79
2023/05/16 13:54:21;;;;;;;6.03;2.13;;;;;;;;;;5027783;28;20235;-80
2023/05/16 13:56:48;;;;;;;6.68;2.70;;;;;;;;;;5026933;28;20577;-80
2023/05/16 13:59:16;;;;;;;7.82;2.53;;;;;;;;;;5028461;28;20242;-80
2023/05/16 14:01:44;;;;;;;6.57;2.75;;;;;;;;;;5027090;28;20281;-79
2023/05/16 14:04:11;;;;;;;4.20;2.55;;;;;;;;;;5025859;28;20295;-80
2023/05/16 14:06:38;;;;;;;4.85;2.40;;;;;;;;;;5024520;28;20724;-80
2023/05/16 14:09:06;;;;;;;5.15;2.20;;;;;;;;;;5027979;28;20769;-81
2023/05/16 14:11:34;;;;;;;6.20;2.25;;;;;;;;;;5027239;28;20711;-80
2023/05/16 14:14:01;;;;;;;6.00;2.00;;;;;;;;;;5027716;28;20205;-81
2023/05/16 14:16:29;;;;;;;4.38;1.83;;;;;;;;;;5027406;28;20508;-80
2023/05/16 14:18:58;;;;;;;4.57;2.50;;;;;;;;;;5029168;28;20291;-79
2023/05/16 14:21:25;;;;;;;5.25;2.25;;;;;;;;;;5029656;28;20204;-80
2023/05/16 14:23:52;;;;;;;4.75;1.98;;;;;;;;;;5025379;28;20710;-81
2023/05/16 14:26:21;;;;;;;7.22;2.00;;;;;;;;;;5027131;28;20284;-81
2023/05/16 14:28:48;;;;;;;5.75;2.47;;;;;;;;;;5022265;28;20701;-80
2023/05/16 14:31:15;;;;;;;3.72;1.88;;;;;;;;;;5025531;28;20228;-80
2023/05/16 14:33:43;;;;;;;4.50;2.13;;;;;;;;;;5026217;28;20244;-79
2023/05/16 14:36:11;;;;;;;8.10;2.30;;;;;;;;;;5025125;28;20201;-80
2023/05/16 14:38:39;;;;;;;5.85;2.03;;;;;;;;;;5026107;28;20240;-80
2023/05/16 14:41:06;;;;;;;5.70;2.10;;;;;;;;;;5027727;28;20205;-80
2023/05/16 14:43:33;;;;;;;4.55;2.10;;;;;;;;;;5027242;28;20228;-80
2023/05/16 14:46:00;;;;;;;5.88;1.98;;;;;;;;;;5021730;28;20220;-80
2023/05/16 14:48:28;;;;;;;4.45;1.85;;;;;;;;;;5024989;28;21668;-81